Time;durP1;ratioP1;P1;durP2;ratioP2;P2;SDS_P1;SDS_P2;PMS_P1;PMS_P2;Temp;Humidity;BMP_temperature;BMP_pressure;BME280_temperature;BME280_humidity;BME280_pressure;Samples;Min_cycle;Max_cycle;Signal;HPM_P1;HPM_P2
2022/07/01 00:00:49;;;;;;;41.03;38.70;;;;;;;22.78;43.54;101384.28;5056578;28;20440;-77
2022/07/01 00:03:15;;;;;;;39.83;37.72;;;;;;;22.75;43.79;101373.91;5054925;28;20374;-77
2022/07/01 00:05:40;;;;;;;40.00;37.80;;;;;;;22.73;43.97;101387.16;5056236;28;20035;-77
2022/07/01 00:08:06;;;;;;;42.90;40.60;;;;;;;22.71;43.78;101393.00;5056144;28;20029;-77
2022/07/01 00:10:31;;;;;;;39.97;37.78;;;;;;;22.68;43.65;101396.38;5056054;28;20385;-76
2022/07/01 00:12:57;;;;;;;41.22;38.65;;;;;;;22.66;43.47;101391.16;5056307;28;20032;-77
2022/07/01 00:15:23;;;;;;;40.13;38.00;;;;;;;22.63;43.83;101390.97;5055983;28;20381;-77
2022/07/01 00:17:49;;;;;;;41.00;38.70;;;;;;;22.62;43.35;101389.31;5054804;28;20511;-77
2022/07/01 00:20:14;;;;;;;40.53;38.25;;;;;;;22.59;43.63;101399.03;5055878;28;20029;-78
2022/07/01 00:22:40;;;;;;;41.53;39.33;;;;;;;22.56;43.83;101396.88;5055857;28;20036;-77
2022/07/01 00:25:06;;;;;;;40.17;37.92;;;;;;;22.54;43.84;101396.38;5055837;28;20389;-77
2022/07/01 00:27:32;;;;;;;38.97;36.58;;;;;;;22.52;43.58;101392.31;5056347;28;20061;-77
2022/07/01 00:29:57;;;;;;;40.42;38.13;;;;;;;22.49;44.06;101381.91;5055903;28;20529;-78
2022/07/01 00:32:22;;;;;;;38.35;36.20;;;;;;;22.46;43.88;101375.88;5055716;28;20086;-78
2022/07/01 00:34:48;;;;;;;41.22;39.03;;;;;;;22.43;43.85;101375.72;5056113;28;20377;-78
2022/07/01 00:37:13;;;;;;;39.67;37.60;;;;;;;22.41;43.84;101376.00;5054609;28;20077;-76
2022/07/01 00:39:38;;;;;;;41.42;38.92;;;;;;;22.39;43.82;101380.19;5055596;28;20454;-77
2022/07/01 00:42:04;;;;;;;41.85;39.38;;;;;;;22.36;43.84;101370.59;5056063;28;20033;-78
2022/07/01 00:44:31;;;;;;;39.58;37.13;;;;;;;22.35;44.02;101371.75;5055489;28;20040;-78
2022/07/01 00:47:00;;;;;;;39.65;37.40;;;;;;;22.32;43.77;101366.81;5055609;28;20078;-77
2022/07/01 00:49:25;;;;;;;40.22;37.92;;;;;;;22.30;43.58;101363.59;5055560;28;20037;-77
2022/07/01 00:51:52;;;;;;;40.92;38.22;;;;;;;22.28;43.94;101365.00;5056107;28;20044;-75
2022/07/01 00:54:18;;;;;;;41.78;39.28;;;;;;;22.25;43.99;101361.75;5055188;28;20036;-76
2022/07/01 00:56:43;;;;;;;40.88;38.70;;;;;;;22.22;43.60;101356.84;5055326;28;20086;-78
2022/07/01 00:59:09;;;;;;;44.25;40.63;;;;;;;22.19;44.16;101362.97;5055407;28;20449;-78
2022/07/01 01:01:34;;;;;;;39.42;37.17;;;;;;;22.18;43.77;101366.00;5053898;28;20040;-76
2022/07/01 01:04:00;;;;;;;41.30;38.72;;;;;;;22.15;43.66;101372.09;5054702;28;20033;-78
2022/07/01 01:06:25;;;;;;;40.55;38.10;;;;;;;22.12;44.26;101378.22;5054770;28;20033;-77
2022/07/01 01:08:52;;;;;;;41.80;38.65;;;;;;;22.11;43.91;101376.59;5055573;28;20116;-79
2022/07/01 01:11:17;;;;;;;39.65;37.33;;;;;;;22.09;44.06;101381.59;5054917;28;20037;-75
2022/07/01 01:13:42;;;;;;;39.33;36.92;;;;;;;22.06;44.16;101377.50;5054698;28;20059;-78
2022/07/01 01:16:16;;;;;;;41.17;38.45;;;;;;;22.03;44.00;101381.69;5054789;28;20033;-78
2022/07/01 01:18:41;;;;;;;41.58;39.00;;;;;;;22.02;44.46;101384.72;5054830;28;20127;-77
2022/07/01 01:21:06;;;;;;;41.47;38.88;;;;;;;21.99;44.43;101393.59;5054347;28;20120;-78
2022/07/01 01:23:32;;;;;;;40.00;37.50;;;;;;;21.96;43.91;101414.28;5055039;28;20060;-77
2022/07/01 01:25:57;;;;;;;40.75;38.17;;;;;;;21.94;44.30;101391.75;5052966;28;20036;-78
2022/07/01 01:28:24;;;;;;;40.17;37.67;;;;;;;21.92;44.24;101391.22;5055104;28;20067;-79
2022/07/01 01:30:50;;;;;;;41.28;38.28;;;;;;;21.90;44.08;101401.75;5054523;28;20139;-78
2022/07/01 01:33:15;;;;;;;42.60;39.38;;;;;;;21.88;44.33;101414.97;5053174;28;20025;-78
2022/07/01 01:35:41;;;;;;;43.40;40.53;;;;;;;21.86;44.29;101419.97;5053054;28;20170;-79
2022/07/01 01:38:06;;;;;;;42.10;39.25;;;;;;;21.84;43.97;101408.44;5054332;28;20025;-78
2022/07/01 01:40:31;;;;;;;39.03;36.65;;;;;;;21.80;44.72;101402.75;5054418;28;20052;-77
2022/07/01 01:42:57;;;;;;;40.88;38.13;;;;;;;21.78;44.47;101406.91;5054076;28;20579;-78
2022/07/01 01:45:23;;;;;;;42.10;39.17;;;;;;;21.75;44.39;101402.84;5037255;28;20090;-76
2022/07/01 01:47:48;;;;;;;41.72;38.88;;;;;;;21.73;44.55;101416.06;5054230;28;20044;-77
2022/07/01 01:50:14;;;;;;;43.35;40.22;;;;;;;21.72;44.58;101421.84;5054022;28;20033;-78
2022/07/01 01:52:42;;;;;;;41.88;38.90;;;;;;;21.70;44.30;101415.84;5054170;28;20040;-78
2022/07/01 01:55:08;;;;;;;41.88;38.60;;;;;;;21.69;44.29;101411.47;5054252;28;20127;-77
2022/07/01 01:57:34;;;;;;;43.17;40.08;;;;;;;21.66;44.62;101407.38;5054049;28;20041;-77
2022/07/01 01:59:59;;;;;;;43.90;40.38;;;;;;;21.65;44.48;101402.19;5053979;28;20036;-78
2022/07/01 02:02:25;;;;;;;42.22;38.95;;;;;;;21.62;44.46;101422.88;5053512;28;20029;-77
2022/07/01 02:04:50;;;;;;;40.75;37.88;;;;;;;21.60;44.55;101431.41;5052615;28;20055;-78
2022/07/01 02:07:16;;;;;;;39.58;37.03;;;;;;;21.57;44.69;101428.41;5052686;28;20060;-78
2022/07/01 02:09:42;;;;;;;39.05;36.28;;;;;;;21.56;44.95;101443.28;5053707;28;20037;-79
2022/07/01 02:12:07;;;;;;;39.90;37.38;;;;;;;21.54;44.56;101437.28;5053580;28;20497;-78
2022/07/01 02:14:33;;;;;;;40.42;37.70;;;;;;;21.51;44.69;101435.94;5052779;28;20029;-77
2022/07/01 02:16:58;;;;;;;43.08;39.92;;;;;;;21.49;44.21;101442.84;5053466;28;20029;-78
2022/07/01 02:19:24;;;;;;;45.38;41.53;;;;;;;21.47;44.62;101445.91;5053523;28;20033;-78
2022/07/01 02:21:50;;;;;;;43.67;39.88;;;;;;;21.46;44.91;101448.97;5053437;28;20037;-78
2022/07/01 02:24:17;;;;;;;43.67;40.40;;;;;;;21.44;45.02;101442.94;5053219;28;20362;-77
2022/07/01 02:26:42;;;;;;;42.65;39.42;;;;;;;21.41;45.03;101441.59;5052180;28;20048;-78
2022/07/01 02:29:07;;;;;;;44.47;41.35;;;;;;;21.38;44.80;101445.75;5053716;28;20048;-78
2022/07/01 02:31:33;;;;;;;42.08;38.67;;;;;;;21.37;44.59;101440.56;5053199;28;20039;-78
2022/07/01 02:33:58;;;;;;;42.78;39.30;;;;;;;21.35;44.96;101448.28;5054075;28;20108;-79
2022/07/01 02:36:23;;;;;;;43.95;40.47;;;;;;;21.34;44.78;101450.22;5052884;28;20087;-77
2022/07/01 02:38:49;;;;;;;44.42;41.00;;;;;;;21.32;44.81;101446.94;5053499;28;20025;-78
2022/07/01 02:41:14;;;;;;;43.20;39.83;;;;;;;21.31;44.78;101436.22;5053684;28;20170;-78
2022/07/01 02:43:40;;;;;;;44.63;41.15;;;;;;;21.30;45.05;101437.34;5053614;28;20037;-78
2022/07/01 02:46:05;;;;;;;44.20;40.22;;;;;;;21.28;45.10;101425.84;5053961;28;20115;-77
2022/07/01 02:48:30;;;;;;;42.90;39.72;;;;;;;21.26;44.98;101419.81;5053336;28;20032;-79
2022/07/01 02:50:56;;;;;;;43.28;39.75;;;;;;;21.24;45.45;101417.38;5053297;28;20029;-78
2022/07/01 02:53:21;;;;;;;44.65;41.05;;;;;;;21.22;44.84;101435.25;5052413;28;20041;-79
2022/07/01 02:55:47;;;;;;;40.63;37.50;;;;;;;21.20;45.27;101443.00;5053246;28;20116;-78
2022/07/01 02:58:12;;;;;;;41.88;38.90;;;;;;;21.19;45.31;101444.91;5053492;28;20461;-79
2022/07/01 03:00:37;;;;;;;44.00;40.58;;;;;;;21.18;45.18;101444.09;5053385;28;20115;-78
2022/07/01 03:03:03;;;;;;;40.50;37.72;;;;;;;21.16;44.97;101451.00;5053257;28;20473;-78
2022/07/01 03:05:28;;;;;;;40.65;37.78;;;;;;;21.13;45.27;101443.38;5053185;28;20033;-78
2022/07/01 03:07:54;;;;;;;40.97;37.78;;;;;;;21.11;45.35;101440.91;5053475;28;20385;-79
2022/07/01 03:10:19;;;;;;;44.03;40.10;;;;;;;21.09;45.49;101439.56;5052940;28;20037;-77
2022/07/01 03:12:45;;;;;;;41.70;38.58;;;;;;;21.07;44.98;101445.38;5052188;28;20040;-77
2022/07/01 03:15:14;;;;;;;42.92;39.58;;;;;;;21.07;45.08;101452.81;5052797;28;20473;-78
2022/07/01 03:17:42;;;;;;;45.03;40.95;;;;;;;21.05;45.29;101452.28;5053123;28;20029;-78
2022/07/01 03:20:09;;;;;;;40.93;37.97;;;;;;;21.04;45.45;101454.22;5053144;28;20033;-79
2022/07/01 03:22:36;;;;;;;41.95;38.22;;;;;;;21.02;45.22;101458.38;5052998;28;20329;-78
2022/07/01 03:25:03;;;;;;;43.17;39.78;;;;;;;21.01;45.39;101464.97;5052775;28;20118;-79
2022/07/01 03:27:29;;;;;;;40.80;37.50;;;;;;;20.99;45.28;101473.50;5052908;28;20088;-78
2022/07/01 03:29:55;;;;;;;41.63;38.47;;;;;;;20.96;45.44;101474.91;5054639;28;20082;-79
2022/07/01 03:32:20;;;;;;;42.40;39.30;;;;;;;20.95;45.33;101466.97;5056765;28;20029;-79
2022/07/01 03:34:48;;;;;;;42.42;39.13;;;;;;;20.94;45.56;101463.41;5056768;28;20351;-78
2022/07/01 03:37:14;;;;;;;43.70;39.70;;;;;;;20.92;45.62;101459.31;5056635;28;20025;-77
2022/07/01 03:39:40;;;;;;;41.67;38.30;;;;;;;20.89;45.53;101466.22;5056735;28;20021;-77
2022/07/01 03:42:07;;;;;;;42.25;39.15;;;;;;;20.89;45.42;101482.69;5057124;28;20037;-75
2022/07/01 03:44:34;;;;;;;46.20;42.10;;;;;;;20.89;45.34;101492.84;5055030;28;20060;-79
2022/07/01 03:47:00;;;;;;;44.30;40.58;;;;;;;20.87;45.83;101489.59;5055309;28;20381;-77
2022/07/01 03:49:25;;;;;;;44.30;40.58;;;;;;;20.85;45.64;101478.09;5056346;28;20029;-78
2022/07/01 03:51:51;;;;;;;42.70;39.05;;;;;;;20.83;45.61;101475.63;5056520;28;20037;-79
2022/07/01 03:54:29;;;;;;;39.83;36.75;;;;;;;20.82;45.51;101495.16;5056436;28;20539;-74
2022/07/01 03:57:02;;;;;;;42.10;38.20;;;;;;;20.79;45.86;101493.81;5056516;28;20491;-78
2022/07/01 03:59:28;;;;;;;41.67;38.35;;;;;;;20.78;45.54;101497.66;5056786;28;20135;-77
2022/07/01 04:01:54;;;;;;;43.60;39.90;;;;;;;20.78;46.05;101502.34;5056244;28;20033;-78
2022/07/01 04:04:20;;;;;;;41.95;38.45;;;;;;;20.75;46.02;101499.06;5056414;28;20091;-78
2022/07/01 04:06:47;;;;;;;44.63;40.67;;;;;;;20.74;45.63;101508.41;5056214;28;20036;-78
2022/07/01 04:09:15;;;;;;;42.45;38.85;;;;;;;20.73;45.58;101511.44;5056144;28;20040;-78
2022/07/01 04:11:42;;;;;;;43.30;39.45;;;;;;;20.72;45.80;101516.13;5056378;28;20037;-78
2022/07/01 04:14:09;;;;;;;43.72;39.83;;;;;;;20.71;45.81;101516.41;5054863;28;20033;-75
2022/07/01 04:16:34;;;;;;;43.75;39.72;;;;;;;20.70;45.74;101506.53;5055970;28;20511;-78
2022/07/01 04:19:00;;;;;;;41.20;38.08;;;;;;;20.67;45.67;101501.66;5055869;28;20025;-78
2022/07/01 04:24:09;;;;;;;42.10;38.53;;;;;;;20.65;45.85;101512.91;5055611;28;20090;-78
2022/07/01 04:26:34;;;;;;;41.42;38.17;;;;;;;20.64;46.01;101516.78;5055572;28;20057;-77
2022/07/01 04:29:00;;;;;;;42.92;39.53;;;;;;;20.62;45.99;101515.44;5056265;28;20121;-77
2022/07/01 04:31:26;;;;;;;41.40;38.17;;;;;;;20.61;46.09;101506.34;5055550;28;20048;-77
2022/07/01 04:33:51;;;;;;;40.72;37.22;;;;;;;20.60;45.95;101507.47;5055938;28;20037;-77
2022/07/01 04:36:17;;;;;;;43.15;39.50;;;;;;;20.58;46.20;101504.19;5055873;28;20036;-77
2022/07/01 04:38:43;;;;;;;39.38;36.28;;;;;;;20.57;46.24;101508.06;5055813;28;20036;-77
2022/07/01 04:43:52;;;;;;;38.90;35.67;;;;;;;20.55;46.05;101528.69;5055507;28;20136;-79
2022/07/01 04:46:17;;;;;;;41.13;37.45;;;;;;;20.52;46.26;101528.09;5054784;28;20064;-78
2022/07/01 04:48:43;;;;;;;39.90;36.45;;;;;;;20.50;46.19;101524.84;5055211;28;20435;-80
2022/07/01 04:51:08;;;;;;;41.30;37.80;;;;;;;20.49;46.41;101530.63;5055265;28;20057;-79
2022/07/01 04:53:34;;;;;;;37.97;35.38;;;;;;;20.49;46.48;101525.16;5054573;28;20113;-81
2022/07/01 04:55:59;;;;;;;40.40;37.40;;;;;;;20.48;46.08;101528.97;5055200;28;20029;-79
2022/07/01 04:58:25;;;;;;;39.28;36.25;;;;;;;20.45;46.37;101522.16;5055469;28;20086;-78
2022/07/01 05:00:51;;;;;;;40.72;37.53;;;;;;;20.45;46.15;101526.81;5055155;28;20393;-81
2022/07/01 05:03:17;;;;;;;37.80;34.90;;;;;;;20.44;46.14;101522.44;5055679;28;20060;-79
2022/07/01 05:05:43;;;;;;;40.50;37.42;;;;;;;20.43;46.44;101516.13;5055468;28;20438;-81
2022/07/01 05:08:08;;;;;;;36.95;34.60;;;;;;;20.42;46.30;101527.41;5055051;28;20449;-80
2022/07/01 05:10:34;;;;;;;38.17;35.40;;;;;;;20.41;46.12;101529.34;5054826;28;20037;-79
2022/07/01 05:12:59;;;;;;;39.30;36.25;;;;;;;20.42;46.64;101527.41;5054664;28;20041;-79
2022/07/01 05:15:25;;;;;;;42.85;39.00;;;;;;;20.39;46.34;101523.31;5055191;28;20025;-80
2022/07/01 05:23:18;;;;;;;40.10;36.92;;;;;;;20.36;46.68;101534.03;5054814;28;20121;-79
2022/07/01 05:25:43;;;;;;;37.05;34.53;;;;;;;20.35;46.88;101529.66;5054651;28;20119;-80
2022/07/01 05:28:09;;;;;;;38.05;35.30;;;;;;;20.32;46.85;101531.88;5055255;28;20056;-79
2022/07/01 05:30:34;;;;;;;38.63;35.90;;;;;;;20.33;46.64;101532.69;5054450;28;20157;-79
2022/07/01 05:32:59;;;;;;;38.00;35.00;;;;;;;20.32;46.77;101528.31;5054566;28;20033;-78
2022/07/01 05:35:25;;;;;;;40.78;37.10;;;;;;;20.31;46.93;101540.41;5053278;28;20037;-78
2022/07/01 05:37:51;;;;;;;38.42;35.53;;;;;;;20.31;46.75;101534.94;5053884;28;20115;-79
2022/07/01 05:40:16;;;;;;;38.33;34.83;;;;;;;20.29;46.90;101535.22;5054436;28;20462;-77
2022/07/01 05:42:41;;;;;;;39.70;36.85;;;;;;;20.29;47.04;101534.38;5054214;28;20119;-79
2022/07/01 05:45:07;;;;;;;36.00;33.40;;;;;;;20.28;46.88;101535.47;5054558;28;20036;-78
2022/07/01 05:47:32;;;;;;;38.25;35.28;;;;;;;20.28;46.71;101533.53;5052692;28;20389;-78
2022/07/01 05:49:57;;;;;;;36.67;33.30;;;;;;;20.26;47.12;101530.31;5054090;28;20028;-78
2022/07/01 05:52:23;;;;;;;36.05;33.70;;;;;;;20.27;47.05;101542.91;5053772;28;20458;-78
2022/07/01 05:54:48;;;;;;;36.30;33.83;;;;;;;20.27;47.06;101545.66;5053498;28;20083;-79
2022/07/01 05:57:14;;;;;;;38.25;35.53;;;;;;;20.26;47.09;101552.25;5054098;28;20142;-80
2022/07/01 05:59:39;;;;;;;38.17;35.58;;;;;;;20.26;46.79;101546.75;5053973;28;20445;-79
2022/07/01 06:02:04;;;;;;;35.53;33.22;;;;;;;20.26;47.16;101541.28;5053990;28;20033;-79
2022/07/01 06:04:30;;;;;;;36.45;33.92;;;;;;;20.26;46.95;101544.03;5054024;28;20039;-77
2022/07/01 06:06:55;;;;;;;35.85;33.30;;;;;;;20.25;47.03;101545.09;5052330;28;20041;-78
2022/07/01 06:09:20;;;;;;;34.80;32.72;;;;;;;20.25;46.92;101538.81;5053489;28;20033;-81
2022/07/01 06:11:46;;;;;;;35.22;33.08;;;;;;;20.25;47.30;101545.09;5053741;28;20040;-78
2022/07/01 06:14:11;;;;;;;37.60;34.78;;;;;;;20.24;47.48;101534.44;5054069;28;20551;-80
2022/07/01 06:16:37;;;;;;;37.78;34.75;;;;;;;20.24;47.62;101538.00;5053382;28;20112;-78
2022/07/01 06:19:04;;;;;;;36.60;34.33;;;;;;;20.24;47.23;101535.25;5054228;28;20480;-77
2022/07/01 06:21:29;;;;;;;34.95;32.45;;;;;;;20.24;47.34;101529.75;5053918;28;20033;-78
2022/07/01 06:23:55;;;;;;;35.63;33.30;;;;;;;20.24;47.23;101528.94;5053744;28;20086;-79
2022/07/01 06:26:20;;;;;;;35.00;32.80;;;;;;;20.25;47.80;101527.84;5052158;28;20112;-79
2022/07/01 06:28:46;;;;;;;37.25;34.08;;;;;;;20.24;47.48;101529.75;5054183;28;20033;-80
2022/07/01 06:31:11;;;;;;;35.53;33.13;;;;;;;20.25;47.95;101536.88;5054597;28;20029;-78
2022/07/01 06:33:36;;;;;;;34.08;31.70;;;;;;;20.24;47.43;101529.75;5054997;28;20041;-80
2022/07/01 06:36:02;;;;;;;35.17;32.40;;;;;;;20.25;47.79;101530.56;5057338;28;20035;-77
2022/07/01 06:38:28;;;;;;;34.78;32.53;;;;;;;20.26;47.81;101530.31;5055782;28;20067;-79
2022/07/01 06:43:38;;;;;;;33.55;31.55;;;;;;;20.28;47.52;101539.03;5056885;28;20044;-79
2022/07/01 06:46:04;;;;;;;33.35;31.05;;;;;;;20.30;47.70;101538.75;5066676;28;20120;-76
2022/07/01 06:48:30;;;;;;;34.17;32.22;;;;;;;20.31;47.35;101546.72;5076906;28;20445;-76
2022/07/01 06:50:55;;;;;;;32.17;30.42;;;;;;;20.34;47.34;101547.25;5068760;28;20214;-80
2022/07/01 06:53:21;;;;;;;33.50;31.40;;;;;;;20.35;47.29;101541.44;5054669;28;20028;-80
2022/07/01 06:55:46;;;;;;;34.03;31.83;;;;;;;20.38;47.61;101542.81;5054344;28;20457;-80
2022/07/01 06:58:11;;;;;;;33.17;31.48;;;;;;;20.39;47.22;101538.97;5053490;28;20481;-81
2022/07/01 07:00:37;;;;;;;31.88;30.33;;;;;;;20.40;47.56;101540.59;5053515;28;20033;-73
2022/07/01 07:03:03;;;;;;;32.20;30.40;;;;;;;20.43;47.39;101542.75;5053362;28;20124;-79
2022/07/01 07:05:31;;;;;;;34.70;32.38;;;;;;;20.46;47.36;101543.00;5056339;28;20029;-80
2022/07/01 07:07:57;;;;;;;33.58;31.67;;;;;;;20.48;47.28;101551.75;5057462;28;20029;-81
2022/07/01 07:10:23;;;;;;;33.50;31.58;;;;;;;20.52;47.60;101549.25;5056424;28;20052;-81
2022/07/01 07:12:48;;;;;;;35.80;33.45;;;;;;;20.55;47.69;101558.88;5057250;28;20465;-81
2022/07/01 07:15:15;;;;;;;33.33;31.13;;;;;;;20.57;47.47;101559.41;5057407;28;20029;-79
2022/07/01 07:17:41;;;;;;;34.15;32.17;;;;;;;20.59;47.87;101558.00;5057173;28;20036;-81
2022/07/01 07:20:06;;;;;;;33.70;31.83;;;;;;;20.61;47.67;101569.47;5057688;28;20037;-81
2022/07/01 07:22:32;;;;;;;32.83;31.13;;;;;;;20.63;47.83;101563.72;5057168;28;20596;-82
2022/07/01 07:24:57;;;;;;;33.42;31.60;;;;;;;20.66;47.96;101577.69;5056908;28;20041;-79
2022/07/01 07:27:23;;;;;;;33.35;31.55;;;;;;;20.70;47.94;101575.19;5055787;28;20059;-81
2022/07/01 07:29:48;;;;;;;32.10;30.45;;;;;;;20.73;47.89;101578.16;5057456;28;20091;-81
2022/07/01 07:32:13;;;;;;;33.60;31.90;;;;;;;20.76;47.81;101574.00;5056938;28;20485;-81
2022/07/01 07:34:39;;;;;;;34.47;32.67;;;;;;;20.80;47.71;101577.81;5056922;28;20115;-81
2022/07/01 07:37:04;;;;;;;34.55;32.47;;;;;;;20.83;48.03;101573.66;5055405;28;20067;-82
2022/07/01 07:39:30;;;;;;;32.92;31.23;;;;;;;20.87;47.76;101577.47;5055881;28;20033;-80
2022/07/01 07:41:55;;;;;;;33.55;31.85;;;;;;;20.88;47.83;101571.66;5056472;28;20033;-81
2022/07/01 07:44:21;;;;;;;35.63;33.72;;;;;;;20.93;48.05;101579.84;5056834;28;20427;-83
2022/07/01 07:46:46;;;;;;;34.40;32.63;;;;;;;20.96;48.20;101573.78;5055765;28;20033;-81
2022/07/01 07:49:12;;;;;;;34.15;32.25;;;;;;;21.01;47.80;101572.88;5057156;28;20059;-81
2022/07/01 07:51:37;;;;;;;32.95;31.10;;;;;;;21.05;48.04;101568.47;5056992;28;20028;-82
2022/07/01 07:54:02;;;;;;;33.97;32.08;;;;;;;21.10;48.17;101573.88;5057854;28;20461;-80
2022/07/01 07:56:29;;;;;;;34.30;32.60;;;;;;;21.12;47.82;101577.16;5042432;28;20040;-82
2022/07/01 07:58:54;;;;;;;35.05;33.05;;;;;;;21.18;48.27;101581.47;5057678;28;20057;-82
2022/07/01 08:01:20;;;;;;;36.65;34.45;;;;;;;21.24;47.89;101590.47;5056994;28;20111;-80
2022/07/01 08:03:45;;;;;;;34.15;32.35;;;;;;;21.28;47.83;101593.47;5056207;28;20373;-80
2022/07/01 08:06:10;;;;;;;33.47;31.88;;;;;;;21.31;48.00;101601.09;5056284;28;20465;-80
2022/07/01 08:08:36;;;;;;;33.78;32.08;;;;;;;21.35;47.85;101593.94;5055038;28;20033;-78
2022/07/01 08:11:01;;;;;;;34.28;32.58;;;;;;;21.42;48.17;101607.31;5056055;28;20029;-78
2022/07/01 08:13:27;;;;;;;33.80;31.70;;;;;;;21.46;48.08;101611.13;5056187;28;20490;-79
2022/07/01 08:15:53;;;;;;;35.70;33.80;;;;;;;21.52;48.09;101613.50;5055803;28;20033;-80
2022/07/01 08:18:18;;;;;;;34.78;33.08;;;;;;;21.56;47.67;101610.97;5056052;28;20036;-78
2022/07/01 08:20:43;;;;;;;34.75;32.97;;;;;;;21.61;47.79;101610.91;5056017;28;20067;-78
2022/07/01 08:23:09;;;;;;;34.38;32.38;;;;;;;21.66;47.60;101621.03;5054429;28;20155;-77
2022/07/01 08:25:34;;;;;;;38.17;36.28;;;;;;;21.71;47.64;101615.47;5056548;28;20033;-79
2022/07/01 08:27:59;;;;;;;36.50;34.25;;;;;;;21.76;47.55;101615.38;5054666;28;20099;-80
2022/07/01 08:30:25;;;;;;;35.53;33.75;;;;;;;21.82;47.30;101614.19;5055869;28;20462;-80
2022/07/01 08:32:50;;;;;;;36.88;34.92;;;;;;;21.89;47.63;101622.06;5054529;28;20118;-78
2022/07/01 08:35:16;;;;;;;36.55;34.45;;;;;;;21.93;47.58;101618.44;5056007;28;20064;-78
2022/07/01 08:37:41;;;;;;;36.45;34.58;;;;;;;21.98;47.23;101625.78;5055897;28;20437;-80
2022/07/01 08:40:07;;;;;;;38.58;36.35;;;;;;;22.05;47.50;101626.25;5054345;28;20033;-79
2022/07/01 08:42:32;;;;;;;36.53;34.17;;;;;;;22.09;47.10;101632.75;5055646;28;20036;-78
2022/07/01 08:44:58;;;;;;;38.13;35.78;;;;;;;22.17;47.26;101634.00;5055435;28;20076;-79
2022/07/01 08:47:23;;;;;;;37.58;35.72;;;;;;;22.22;47.49;101633.97;5055232;28;20550;-79
2022/07/01 08:49:49;;;;;;;37.80;35.80;;;;;;;22.29;46.90;101630.84;5055624;28;20033;-79
2022/07/01 08:52:14;;;;;;;39.10;37.10;;;;;;;22.34;46.80;101631.56;5055049;28;20039;-78
2022/07/01 08:54:41;;;;;;;37.67;35.85;;;;;;;22.40;47.28;101632.28;5055881;28;20100;-76
2022/07/01 08:57:07;;;;;;;40.38;38.28;;;;;;;22.45;46.96;101624.78;5055266;28;20033;-78
2022/07/01 08:59:33;;;;;;;39.70;37.42;;;;;;;22.53;46.47;101616.94;5055495;28;20079;-80
2022/07/01 09:02:03;;;;;;;39.70;37.60;;;;;;;22.59;46.71;101637.75;5053984;28;20377;-77
2022/07/01 09:04:29;;;;;;;39.42;37.03;;;;;;;22.66;46.66;101638.19;5055598;28;20024;-79
2022/07/01 09:07:07;;;;;;;38.20;36.38;;;;;;;22.73;46.41;101641.38;5054997;28;20046;-79
2022/07/01 09:09:42;;;;;;;38.72;36.38;;;;;;;22.78;45.98;101637.69;5054654;28;20416;-79
2022/07/01 09:12:09;;;;;;;39.53;37.53;;;;;;;22.83;46.42;101632.94;5053971;28;20415;-79
2022/07/01 09:14:35;;;;;;;39.22;37.33;;;;;;;22.90;46.16;101641.59;5055289;28;20036;-77
2022/07/01 09:17:05;;;;;;;39.05;37.15;;;;;;;22.94;46.50;101639.06;5054811;28;20037;-76
2022/07/01 09:19:36;;;;;;;39.40;37.30;;;;;;;23.01;46.27;101644.19;5055166;28;20025;-80
2022/07/01 09:22:04;;;;;;;40.88;38.15;;;;;;;23.05;45.70;101635.00;5054370;28;20033;-78
2022/07/01 09:24:32;;;;;;;41.63;39.33;;;;;;;23.12;45.84;101648.38;5054498;28;20461;-77
2022/07/01 09:27:10;;;;;;;38.60;36.72;;;;;;;23.18;45.88;101652.66;5054574;28;20136;-78
2022/07/01 09:29:37;;;;;;;39.15;37.25;;;;;;;23.23;45.91;101647.03;5054559;28;20037;-78
2022/07/01 09:32:06;;;;;;;42.23;39.93;;;;;;;23.29;45.61;101656.84;5054611;28;20450;-80
2022/07/01 09:34:48;;;;;;;;;;;;;;;23.35;45.72;101651.25;5054994;28;20408;-79
2022/07/01 09:37:16;;;;;;;40.78;38.78;;;;;;;23.41;45.58;101655.50;5053599;28;20404;-79
2022/07/01 09:39:46;;;;;;;39.83;37.90;;;;;;;23.46;45.02;101658.16;5054504;28;20032;-77
2022/07/01 09:42:11;;;;;;;39.08;36.88;;;;;;;23.51;44.75;101664.41;5054436;28;20044;-78
2022/07/01 09:44:51;;;;;;;41.22;39.13;;;;;;;23.57;45.15;101659.59;5054379;28;20029;-79
2022/07/01 09:47:16;;;;;;;42.88;40.35;;;;;;;23.62;44.70;101662.25;5054358;28;20059;-78
2022/07/01 09:49:42;;;;;;;40.45;38.50;;;;;;;23.66;44.80;101668.78;5054402;28;20031;-78
2022/07/01 09:52:08;;;;;;;42.25;39.90;;;;;;;23.73;44.37;101668.38;5054369;28;20025;-79
2022/07/01 09:54:33;;;;;;;41.22;39.22;;;;;;;23.77;44.33;101666.66;5053036;28;20033;-78
2022/07/01 09:56:59;;;;;;;41.28;39.17;;;;;;;23.82;44.22;101677.56;5053848;28;20082;-76
2022/07/01 09:59:24;;;;;;;43.47;41.38;;;;;;;23.86;44.41;101683.28;5053912;28;20039;-77
2022/07/01 10:01:50;;;;;;;43.15;41.15;;;;;;;23.91;44.03;101680.41;5052504;28;20029;-75
2022/07/01 10:04:17;;;;;;;45.83;43.42;;;;;;;23.94;44.36;101686.13;5053965;28;20029;-77
2022/07/01 10:07:04;;;;;;;44.63;42.23;;;;;;;24.00;44.33;101686.00;5054068;28;20069;-78
2022/07/01 10:09:50;;;;;;;42.22;40.03;;;;;;;24.03;44.16;101688.94;5053980;28;20267;-79
2022/07/01 10:12:31;;;;;;;42.10;39.83;;;;;;;24.07;43.71;101689.16;5053990;28;20108;-76
2022/07/01 10:14:59;;;;;;;41.25;38.95;;;;;;;24.09;43.99;101696.00;5054210;28;20071;-79
2022/07/01 10:17:34;;;;;;;43.22;40.78;;;;;;;24.13;43.80;101688.72;5052818;28;20029;-77
2022/07/01 10:20:09;;;;;;;43.25;41.13;;;;;;;24.17;43.26;101686.16;5053797;28;20025;-78
2022/07/01 10:22:37;;;;;;;42.75;40.70;;;;;;;24.21;43.38;101697.38;5053676;28;20025;-78
2022/07/01 10:25:40;;;;;;;43.80;41.60;;;;;;;24.25;43.12;101695.66;5053692;28;20040;-75
2022/07/01 10:28:16;;;;;;;46.05;43.70;;;;;;;24.27;43.31;101693.41;5054323;28;20057;-77
2022/07/01 10:30:52;;;;;;;41.03;38.90;;;;;;;24.29;43.00;101693.88;5053690;28;20090;-77
2022/07/01 10:33:45;;;;;;;44.35;41.92;;;;;;;24.33;43.26;101697.66;5053691;28;20060;-77
2022/07/01 10:36:14;;;;;;;43.60;41.22;;;;;;;24.34;43.02;101700.13;5050775;28;20060;-78
2022/07/01 10:39:08;;;;;;;43.28;41.08;;;;;;;24.38;42.99;101700.28;5053189;28;20037;-76
2022/07/01 10:41:52;;;;;;;43.78;41.47;;;;;;;24.39;42.45;101704.66;5053738;28;20178;-76
2022/07/01 10:44:18;;;;;;;43.97;40.92;;;;;;;24.40;42.82;101709.91;5053529;28;20465;-77
2022/07/01 10:47:04;;;;;;;40.67;38.70;;;;;;;24.43;42.82;101702.94;5053478;28;20166;-77
2022/07/01 10:49:36;;;;;;;43.63;41.30;;;;;;;24.45;42.72;101697.09;5052084;28;20029;-77
2022/07/01 10:52:15;;;;;;;42.95;40.85;;;;;;;24.47;42.66;101700.38;5054017;28;20060;-77
2022/07/01 10:54:40;;;;;;;43.95;41.85;;;;;;;24.48;42.43;101704.78;5054295;28;20025;-76
2022/07/01 10:57:15;;;;;;;43.25;41.17;;;;;;;24.50;42.36;101695.06;5053310;28;20380;-72
2022/07/01 10:59:41;;;;;;;42.15;40.13;;;;;;;24.52;41.90;101706.63;5053708;28;20068;-76
2022/07/01 11:02:15;;;;;;;45.22;42.90;;;;;;;24.54;42.27;101704.31;5053273;28;20488;-76
2022/07/01 11:04:40;;;;;;;41.97;39.97;;;;;;;24.55;42.25;101692.16;5052987;28;20082;-77
2022/07/01 11:07:06;;;;;;;45.95;43.65;;;;;;;24.58;41.84;101705.34;5035224;28;20041;-77
2022/07/01 11:09:31;;;;;;;42.35;40.17;;;;;;;24.59;42.08;101698.72;5052899;28;20029;-78
2022/07/01 11:11:57;;;;;;;42.22;40.22;;;;;;;24.63;41.68;101707.16;5051867;28;20091;-78
2022/07/01 11:14:23;;;;;;;43.63;41.35;;;;;;;24.65;41.85;101699.38;5053201;28;20039;-77
2022/07/01 11:16:48;;;;;;;43.22;41.17;;;;;;;24.69;41.77;101699.56;5053170;28;20065;-79
2022/07/01 11:19:17;;;;;;;43.20;40.92;;;;;;;24.72;41.70;101709.97;5051701;28;20083;-78
2022/07/01 11:21:52;;;;;;;44.00;41.83;;;;;;;24.74;41.67;101699.44;5052889;28;20453;-79